Forum - i mitici sud

tutti gli utenti del gruppo possono partecipare le discussione con riferimento a sesso o non conforme a chatta.it verranno imossi

Amministratore
F.ranco52 30/01/2021 ore 10:20 Quota

(nessuno) Nowcasting Sabato 30 Gennaio 2021

Buongiorno e buon Week End a tutti


Notizie Meteo dell'Italia da il Meteo .It


http://ilMeteo.It


la Situazione Italiana vista dal Sat









il Radar Europeo









Brindisi

METAR LIBR 300750Z 31009KT CAVOK 13/09 Q1005=

METAR di Brindisi del 30 alle 7,50z

Vento da 310░ W NW 9 nodi (16,668 km) VisibilitÓ 10000 m
Base delle Nubi e VisibilitÓ OK
Temp 13░C Dew 9░C Ur 76% hPa 1005

Brindisi

TAF LIBR 300500Z 3006/3106 32010KT CAVOK TEMPO 3006/3011 32015G25KT BECMG 3015/3018 17015KT=

le TAF di Brindisi delle 5z Previsioni dalle 6z alle 6z del 31

Vento da 320░ N NW 10 nodi (18,52 km) VisibilitÓ 10000 m
Base delle Nubi e VisibilitÓ OK
il Tempo VarierÓ dalle 6z alle 11z
Vento da 320░ N NW 15 nodi (27,78 km)
Raffiche da 25 nodi (46,3 km)
le Condizioni Diverranno fra le 15z e le 18z
Vento da 170░ S SE 15 nodi (27,78 km)


Gioia del Colle

METAR LIBV 300755Z 29010KT CAVOK 06/00 Q1004 RMK SCT SCT200 VIS MIN 9999 WIND THR32 30011KT WIND THR14 30012KT BLU=

METAR di Gioia del Colle del 30 alle 7,55z

Vento da 290░ W NW 10 nodi (18,52 km) Visibilit¨ 10000 m
Base delle Nubi e VisibiitÓ OK
Temp 6░C Dew 0░C Ur 65% hPa 1004
Aumento della NuvolositÓ a 3-4 ottavi
Copertura 3-4 ottavi da 20000 piedi (6096 m)
VisibilitÓ Minima 10000 m

Gioia del Colle

TAF LIBV 300500Z 3006/3015 33010KT CAVOK=

le TAF di Gioia del Colle delle 5z Previsioni dalle 6z alle 15z

Vento da 330░ N NW 10 nodi (18,52 km) VisibilitÓ 10000 m
Base delle Nubi e VisibilitÓ OK
2712933
Buongiorno e buon Week End a tutti Notizie Meteo dell'Italia da il Meteo .It http://ilMeteo.It la Situazione Italiana vista dal...
Discussione
30/01/2021 10:20:11
none
  • mi piace
    iLikeIt
    PublicVote

Vuoi partecipare anche tu a questa discussione?

Rispondi per lasciare il tuo messaggio in questa discussione